Latest Weather Observations for Orbost

IDV60801

Issued at 7:32 pm EDT Wednesday 22 February 2017 (issued every 30 minutes, with the page automatically refreshed every 10 minutes)

About weather observations | Map of weather stations | Latest weather observations for VIC | Other Formats
Station Details ID: 084145 Name: ORBOST Lat: -37.69 Lon: 148.47 Height: 62.65 m
Data from the previous 72 hours. | See also: Recent months at Orbost
Date/Time
EDT
Temp
°C
App
Temp
°C
Dew
Point
°C
Rel
Hum
%
Delta-T
°C
Wind Press
QNH
hPa
Press
MSL
hPa
Rain since
9am
mm
Dir  Spd
km/h
Gust
km/h
Spd
kts
Gust
kts
22/07:30pm 25.8 27.7 17.7 61 5.1 W 4 4 2 2 1012.2 1012.0 0.0
22/07:00pm 26.4 29.1 17.7 58 5.5 CALM 0 2 0 1 1011.8 1011.6 0.0
22/06:30pm 26.3 27.7 17.4 58 5.6 SSE 6 9 3 5 1011.8 1011.6 0.0
22/06:00pm 26.7 27.6 16.6 54 6.3 S 7 13 4 7 1012.2 1012.0 0.0
22/05:30pm 27.1 27.3 15.8 50 6.9 SSE 9 17 5 9 1012.3 1012.1 0.0
22/05:00pm 26.4 26.4 16.3 53 6.2 SSE 11 17 6 9 1012.3 1012.1 0.0
22/04:30pm 25.8 25.9 16.4 56 5.8 SSE 11 20 6 11 1012.4 1012.2 0.0
22/04:00pm 25.9 25.7 16.7 57 5.7 SE 13 19 7 10 1012.3 1012.1 0.0
22/03:30pm 26.4 26.3 16.9 56 5.9 SSE 13 20 7 11 1012.6 1012.4 0.0
22/03:00pm 25.1 24.5 15.7 56 5.7 SSE 13 20 7 11 1012.9 1012.7 0.0
22/02:30pm 26.2 25.5 15.3 51 6.6 S 13 19 7 10 1013.4 1013.2 0.0
22/02:00pm 26.1 25.7 16.1 54 6.1 SSE 13 19 7 10 1013.7 1013.5 0.0
22/01:30pm 26.1 26.1 15.2 51 6.6 SE 9 15 5 8 1014.2 1014.0 0.0
22/01:00pm 26.3 26.9 15.7 52 6.5 SSE 7 15 4 8 1014.7 1014.5 0.0
22/12:30pm 24.9 25.3 14.7 53 6.1 SE 6 11 3 6 1015.3 1015.1 0.0
22/12:00pm 24.4 25.2 14.8 55 5.7 SSE 4 9 2 5 1016.0 1015.8 0.0
22/11:30am 22.7 22.9 14.3 59 4.9 SSW 6 9 3 5 1016.5 1016.3 0.0
22/11:00am 22.2 23.1 14.1 60 4.7 S 2 6 1 3 1017.0 1016.8 0.0
22/10:30am 20.8 21.3 14.0 65 3.9 WSW 4 7 2 4 1017.4 1017.2 0.0
22/10:00am 19.1 19.8 13.5 70 3.2 WSW 2 6 1 3 1017.5 1017.3 0.0
22/09:30am 17.4 17.9 12.9 75 2.5 SSW 2 4 1 2 1017.8 1017.6 0.0
22/09:00am 15.8 16.7 12.9 83 1.6 CALM 0 0 0 0 1018.1 1017.9 0.0
22/08:30am 13.7 14.4 12.3 91 0.8 CALM 0 0 0 0 1018.2 1018.0 0.0
22/08:00am 12.5 13.0 11.7 95 0.4 CALM 0 0 0 0 1018.2 1018.0 0.0
22/07:30am 10.1 10.1 9.8 98 0.2 CALM 0 0 0 0 1018.1 1017.9 0.0
22/07:00am 10.1 10.0 9.6 97 0.3 CALM 0 0 0 0 1018.0 1017.8 0.0
22/06:30am 10.2 10.2 9.7 97 0.3 CALM 0 0 0 0 1017.9 1017.7 0.0
22/06:00am 10.3 10.3 9.8 97 0.3 CALM 0 0 0 0 1017.7 1017.5 0.0
22/05:30am 10.3 10.3 9.8 97 0.3 CALM 0 0 0 0 1017.8 1017.6 0.0
22/05:00am 10.2 10.2 9.7 97 0.3 CALM 0 0 0 0 1017.8 1017.6 0.0
22/04:30am 10.4 10.4 9.8 96 0.3 CALM 0 0 0 0 1018.0 1017.8 0.0
22/04:00am 10.5 10.5 9.7 95 0.4 CALM 0 0 0 0 1018.2 1018.0 0.0
22/03:30am 10.8 10.9 10.0 95 0.4 CALM 0 0 0 0 1018.3 1018.1 0.0
22/03:00am 11.2 11.3 10.0 92 0.6 CALM 0 0 0 0 1018.5 1018.3 0.0
22/02:30am 11.5 11.7 10.4 93 0.6 CALM 0 0 0 0 1018.9 1018.7 0.0
22/02:00am 11.7 11.9 10.6 93 0.6 CALM 0 0 0 0 1019.2 1019.0 0.0
22/01:30am 12.0 12.2 10.6 91 0.7 CALM 0 0 0 0 1019.7 1019.5 0.0
22/01:00am 11.9 12.0 10.3 90 0.8 CALM 0 0 0 0 1020.0 1019.8 0.0
22/12:30am 12.0 12.1 10.2 89 0.9 CALM 0 0 0 0 1020.3 1020.1 0.0
22/12:00am 12.7 12.8 10.1 84 1.3 CALM 0 0 0 0 1020.5 1020.3 0.0
 
Date/Time
EDT
Temp
°C
App
Temp
°C
Dew
Point
°C
Rel
Hum
%
Delta-T
°C
Wind Press
QNH
hPa
Press
MSL
hPa
Rain since
9am
mm
Dir  Spd
km/h
Gust
km/h
Spd
kts
Gust
kts
21/11:30pm 14.1 13.9 10.3 78 2.0 ESE 2 4 1 2 1020.8 1020.6 0.0
21/11:00pm 15.1 14.0 10.7 75 2.3 ESE 7 13 4 7 1021.1 1020.9 0.0
21/10:30pm 14.9 13.8 10.7 76 2.2 E 7 11 4 6 1021.3 1021.1 0.0
21/10:00pm 14.9 13.9 10.9 77 2.1 ESE 7 17 4 9 1021.5 1021.3 0.0
21/09:30pm 14.7 13.9 11.1 79 1.9 ESE 6 7 3 4 1021.3 1021.1 0.0
21/09:00pm 14.6 14.6 11.0 79 1.9 SE 2 6 1 3 1021.2 1021.0 0.0
21/08:30pm 15.7 15.2 10.9 73 2.6 SE 4 7 2 4 1020.6 1020.4 0.0
21/08:00pm 16.3 15.5 11.0 71 2.8 ESE 6 9 3 5 1020.1 1019.9 0.0
21/07:30pm 17.5 16.8 11.3 67 3.4 SE 6 13 3 7 1020.0 1019.8 0.0
21/07:00pm 18.3 17.3 11.1 63 3.9 SE 7 15 4 8 1019.9 1019.7 0.0
21/06:30pm 18.6 17.1 10.7 60 4.3 SE 9 15 5 8 1019.6 1019.4 0.0
21/06:00pm 19.1 17.5 10.1 56 4.8 SSE 9 20 5 11 1019.6 1019.4 0.0
21/05:30pm 20.1 18.8 11.3 57 4.9 SSE 9 15 5 8 1019.6 1019.4 0.0
21/05:00pm 19.9 18.3 10.3 54 5.2 SSE 9 19 5 10 1019.6 1019.4 0.0
21/04:30pm 20.3 18.9 11.0 55 5.1 SSE 9 17 5 9 1019.6 1019.4 0.0
21/04:00pm 20.5 18.7 10.9 54 5.3 SSE 11 19 6 10 1019.7 1019.5 0.0
21/03:30pm 20.1 17.7 9.9 52 5.5 S 13 19 7 10 1020.0 1019.8 0.0
21/03:00pm 20.7 18.7 10.2 51 5.7 S 11 20 6 11 1020.1 1019.9 0.0
21/02:30pm 19.7 17.6 9.6 52 5.4 SSE 11 20 6 11 1020.4 1020.2 0.0
21/02:00pm 20.4 18.0 10.2 52 5.5 S 13 20 7 11 1020.6 1020.4 0.0
21/01:30pm 21.2 19.6 10.1 49 6.0 SW 9 15 5 8 1020.7 1020.5 0.0
21/01:00pm 20.8 19.6 9.7 49 5.9 E 6 17 3 9 1020.6 1020.4 0.0
21/12:30pm 20.1 18.0 8.1 46 6.2 SW 9 22 5 12 1021.1 1020.9 0.0
21/12:00pm 19.7 17.9 7.8 46 6.1 WNW 7 15 4 8 1021.2 1021.0 0.0
21/11:30am 19.3 17.2 8.3 49 5.7 W 9 17 5 9 1021.6 1021.4 0.0
21/11:00am 18.3 16.1 8.0 51 5.3 WNW 9 17 5 9 1021.7 1021.5 0.0
21/10:30am 17.9 15.9 8.7 55 4.8 W 9 13 5 7 1021.7 1021.5 0.0
21/10:00am 17.1 15.6 9.3 60 4.1 W 7 15 4 8 1021.7 1021.5 0.0
21/09:30am 16.3 14.8 8.5 60 4.0 WNW 6 11 3 6 1021.4 1021.2 0.0
21/09:00am 14.9 13.7 9.5 70 2.8 NW 6 9 3 5 1021.2 1021.0 0.2
21/08:30am 13.3 11.9 9.0 75 2.2 NNW 6 11 3 6 1021.0 1020.8 0.2
21/08:00am 11.9 10.4 9.3 84 1.3 N 7 9 4 5 1020.5 1020.3 0.2
21/07:30am 9.8 8.2 8.2 90 0.8 N 6 6 3 3 1020.3 1020.1 0.2
21/07:00am 8.6 7.1 6.9 89 0.8 NNW 4 7 2 4 1019.9 1019.7 0.2
21/06:30am 9.0 7.1 7.5 90 0.7 N 7 9 4 5 1019.4 1019.2 0.2
21/06:00am 8.9 7.2 7.5 91 0.7 NNW 6 9 3 5 1019.1 1018.9 0.2
21/05:30am 9.8 8.6 8.2 90 0.8 NW 4 6 2 3 1018.7 1018.5 0.2
21/05:00am 9.6 8.6 7.5 87 1.0 W 2 4 1 2 1018.3 1018.1 0.2
21/04:30am 11.7 10.1 8.2 79 1.7 NNW 6 9 3 5 1018.2 1018.0 0.2
21/04:00am 11.8 9.7 8.3 79 1.7 NNW 9 11 5 6 1018.0 1017.8 0.2
21/03:30am 12.7 11.1 8.6 76 2.0 NNW 7 9 4 5 1018.0 1017.8 0.2
21/03:00am 12.8 10.8 8.7 76 2.1 NNW 9 15 5 8 1018.0 1017.8 0.2
21/02:30am 13.0 11.0 8.7 75 2.2 NNW 9 13 5 7 1018.0 1017.8 0.2
21/02:00am 13.5 11.5 8.8 73 2.4 NNW 9 19 5 10 1018.0 1017.8 0.2
21/01:30am 13.6 11.3 8.9 73 2.4 NNW 11 17 6 9 1017.9 1017.7 0.2
21/01:00am 13.7 10.9 8.5 71 2.6 NNW 13 22 7 12 1017.9 1017.7 0.2
21/12:30am 13.5 11.1 8.8 73 2.4 NNW 11 15 6 8 1017.8 1017.6 0.2
21/12:00am 12.7 10.1 9.2 79 1.8 N 13 22 7 12 1017.5 1017.3 0.2
 
Date/Time
EDT
Temp
°C
App
Temp
°C
Dew
Point
°C
Rel
Hum
%
Delta-T
°C
Wind Press
QNH
hPa
Press
MSL
hPa
Rain since
9am
mm
Dir  Spd
km/h
Gust
km/h
Spd
kts
Gust
kts
20/11:30pm 13.1 11.6 9.0 76 2.1 NNW 7 11 4 6 1017.5 1017.3 0.2
20/11:00pm 13.7 12.0 8.5 71 2.6 NW 7 11 4 6 1017.2 1017.0 0.2
20/10:30pm 14.0 12.4 8.6 70 2.7 NW 7 15 4 8 1016.9 1016.7 0.2
20/10:00pm 14.0 12.0 8.8 71 2.6 NW 9 13 5 7 1016.5 1016.3 0.2
20/09:30pm 14.4 12.8 8.6 68 2.9 NW 7 13 4 7 1016.2 1016.0 0.2
20/09:00pm 14.8 13.2 8.7 67 3.1 NW 7 13 4 7 1015.8 1015.6 0.2
20/08:30pm 15.1 12.7 8.8 66 3.2 NW 11 15 6 8 1015.3 1015.1 0.2
20/08:00pm 15.4 13.2 9.5 68 3.1 WNW 11 19 6 10 1014.8 1014.6 0.2
20/07:30pm 16.0 13.7 10.3 69 3.0 WNW 13 19 7 10 1014.3 1014.1 0.2
20/07:00pm 15.7 13.9 10.7 72 2.7 WNW 11 17 6 9 1013.8 1013.6 0.2
20/06:30pm 15.6 13.0 10.6 72 2.7 WNW 15 22 8 12 1013.5 1013.3 0.2
20/06:00pm 15.6 12.7 9.7 68 3.1 WNW 15 22 8 12 1013.2 1013.0 0.2
20/05:30pm 17.0 11.7 9.9 63 3.7 WSW 28 39 15 21 1012.7 1012.5 0.2
20/05:00pm 18.8 14.3 8.5 51 5.4 W 22 37 12 20 1011.8 1011.6 0.2
20/04:30pm 17.1 13.3 11.2 68 3.2 WSW 22 35 12 19 1011.7 1011.5 0.0
20/04:00pm 18.6 14.2 10.4 59 4.4 WSW 24 35 13 19 1011.2 1011.0 0.0
20/03:30pm 16.1 12.2 10.8 71 2.8 WSW 22 33 12 18 1011.2 1011.0 0.0
20/03:00pm 20.3 15.4 8.3 46 6.3 W 24 39 13 21 1010.5 1010.3 0.0
20/02:30pm 18.9 13.6 8.3 50 5.5 WSW 26 41 14 22 1010.4 1010.2 0.0
20/02:00pm 18.1 14.4 10.0 59 4.3 WSW 20 43 11 23 1010.7 1010.5 0.0
20/01:42pm 18.3 12.1 6.2 45 6.0 W 28 46 15 25 1010.3 1010.1 0.0
20/01:30pm 18.9 12.7 6.1 43 6.3 W 28 43 15 23 1010.2 1010.0 0.0
20/01:00pm 18.1 13.1 6.6 47 5.7 W 22 39 12 21 1010.0 1009.8 0.0
20/12:30pm 18.0 12.8 7.1 49 5.5 W 24 35 13 19 1010.0 1009.8 0.0
20/12:00pm 18.5 13.4 7.6 49 5.6 WNW 24 39 13 21 1010.0 1009.8 0.0
20/11:30am 16.6 10.8 6.4 51 5.0 W 26 39 14 21 1010.0 1009.8 0.0
20/11:00am 16.7 11.5 7.1 53 4.8 W 24 43 13 23 1010.0 1009.8 0.0
20/10:30am 15.6 11.1 6.9 56 4.3 WNW 20 32 11 17 1010.0 1009.8 0.0
20/10:00am 15.7 10.8 6.7 55 4.4 W 22 37 12 20 1009.7 1009.5 0.0
20/09:30am 14.4 10.9 7.0 61 3.6 NW 15 22 8 12 1009.6 1009.4 0.0
20/09:00am 13.0 9.3 6.4 64 3.2 NNW 15 24 8 13 1009.4 1009.2 -
20/08:30am 12.5 8.3 5.7 63 3.2 NNW 17 26 9 14 1009.1 1008.9 -
20/08:00am 11.5 7.7 6.0 69 2.6 NNW 15 22 8 12 1008.9 1008.7 -
20/07:30am 10.9 7.1 5.7 70 2.4 NNW 15 22 8 12 1008.7 1008.5 -
20/07:00am 9.7 6.3 5.9 77 1.8 NNW 13 19 7 10 1008.6 1008.4 -
20/06:30am 9.7 7.1 5.9 77 1.8 NNW 9 17 5 9 1008.3 1008.1 -
20/06:00am 9.7 6.7 6.1 78 1.7 NNW 11 19 6 10 1008.2 1008.0 -
20/05:30am 9.6 6.7 6.5 81 1.4 NNW 11 17 6 9 1008.0 1007.7 -
20/05:00am 9.5 6.7 6.8 83 1.3 NNW 11 15 6 8 1008.0 1007.7 -
20/04:30am 9.4 7.0 6.8 84 1.2 NNW 9 13 5 7 1008.1 1007.8 -
20/04:00am 9.5 7.1 7.1 85 1.1 N 9 13 5 7 1007.9 1007.6 -
20/03:30am 9.5 7.1 7.1 85 1.1 N 9 13 5 7 1008.0 1007.7 -
20/03:00am 9.2 6.9 7.3 88 0.9 N 9 13 5 7 1008.2 1008.0 -
20/02:30am 9.5 7.2 7.6 88 0.9 NNW 9 13 5 7 1008.4 1008.2 -
20/02:00am 9.5 7.9 7.9 90 0.8 N 6 9 3 5 1008.5 1008.3 -
20/01:30am 9.8 8.2 8.1 89 0.8 NW 6 9 3 5 1008.6 1008.4 -
20/01:00am 10.1 7.5 7.9 86 1.1 N 11 15 6 8 1008.9 1008.7 -
20/12:30am 9.9 7.4 8.0 88 0.9 N 11 13 6 7 1009.2 1009.0 -
20/12:00am 9.6 7.5 8.4 92 0.6 N 9 11 5 6 1009.4 1009.2 4.4
 
Date/Time
EDT
Temp
°C
App
Temp
°C
Dew
Point
°C
Rel
Hum
%
Delta-T
°C
Wind Press
QNH
hPa
Press
MSL
hPa
Rain since
9am
mm
Dir  Spd
km/h
Gust
km/h
Spd
kts
Gust
kts
19/11:30pm 9.5 7.8 8.3 92 0.6 NNE 7 11 4 6 1009.0 1008.8 4.4
19/11:00pm 9.7 8.0 8.5 92 0.6 NNW 7 11 4 6 1009.7 1009.5 3.6
19/10:30pm 9.8 7.8 8.6 92 0.6 WNW 9 20 5 11 1010.8 1010.6 1.6
19/10:00pm 11.6 8.7 8.1 79 1.7 W 13 22 7 12 1010.6 1010.4 0.2
19/09:30pm 12.0 10.0 8.5 79 1.7 WSW 9 15 5 8 1010.3 1010.1 0.2
19/09:00pm 12.3 10.1 9.3 82 1.5 WSW 11 17 6 9 1010.0 1009.8 0.2
19/08:30pm 12.8 10.7 9.6 81 1.6 WSW 11 20 6 11 1009.4 1009.2 0.2
19/08:00pm 12.9 11.9 11.0 88 1.0 WNW 7 13 4 7 1009.0 1008.8 0.2

Other Formats:

Comma delimited format used in spreadsheet applications
http://www.bom.gov.au/fwo/IDV60801/IDV60801.95918.axf

JavaScript Object Notation format (JSON) in row-major order
http://www.bom.gov.au/fwo/IDV60801/IDV60801.95918.json